sensor_id;sensor_type;location;lat;lon;timestamp;pressure;altitude;pressure_sealevel;temperature;humidity
10832;BME280;5469;48.574;8.768;2023-02-04T00:01:37;96086.78;;;6.28;100.00
10832;BME280;5469;48.574;8.768;2023-02-04T00:04:14;96085.56;;;6.30;100.00
10832;BME280;5469;48.574;8.768;2023-02-04T00:06:49;96081.91;;;6.25;100.00
10832;BME280;5469;48.574;8.768;2023-02-04T00:09:24;96082.34;;;6.22;100.00
10832;BME280;5469;48.574;8.768;2023-02-04T00:11:59;96087.94;;;6.32;100.00
10832;BME280;5469;48.574;8.768;2023-02-04T00:14:34;96088.81;;;6.26;100.00
10832;BME280;5469;48.574;8.768;2023-02-04T00:17:09;96084.16;;;6.28;100.00
10832;BME280;5469;48.574;8.768;2023-02-04T00:19:46;96090.16;;;6.35;100.00
10832;BME280;5469;48.574;8.768;2023-02-04T00:22:21;96092.84;;;6.28;100.00
10832;BME280;5469;48.574;8.768;2023-02-04T00:24:56;96093.66;;;6.29;100.00
10832;BME280;5469;48.574;8.768;2023-02-04T00:27:31;96089.72;;;6.38;100.00
10832;BME280;5469;48.574;8.768;2023-02-04T00:30:08;96099.25;;;6.39;100.00
10832;BME280;5469;48.574;8.768;2023-02-04T00:32:43;96088.88;;;6.44;100.00
10832;BME280;5469;48.574;8.768;2023-02-04T00:35:20;96102.47;;;6.41;100.00
10832;BME280;5469;48.574;8.768;2023-02-04T00:37:55;96095.16;;;6.43;100.00
10832;BME280;5469;48.574;8.768;2023-02-04T00:40:30;96099.63;;;6.43;99.09
10832;BME280;5469;48.574;8.768;2023-02-04T00:43:05;96108.56;;;6.42;100.00
10832;BME280;5469;48.574;8.768;2023-02-04T00:45:40;96109.78;;;6.39;100.00
10832;BME280;5469;48.574;8.768;2023-02-04T00:48:15;96102.47;;;6.41;100.00
10832;BME280;5469;48.574;8.768;2023-02-04T00:50:52;96100.47;;;6.37;100.00
10832;BME280;5469;48.574;8.768;2023-02-04T00:53:27;96095.16;;;6.43;99.64
10832;BME280;5469;48.574;8.768;2023-02-04T00:56:02;96091.94;;;6.41;100.00
10832;BME280;5469;48.574;8.768;2023-02-04T00:58:38;96104.09;;;6.42;100.00
10832;BME280;5469;48.574;8.768;2023-02-04T01:01:13;96097.38;;;6.46;100.00
10832;BME280;5469;48.574;8.768;2023-02-04T01:03:48;96106.28;;;6.45;100.00
10832;BME280;5469;48.574;8.768;2023-02-04T01:06:24;96097.28;;;6.60;100.00
10832;BME280;5469;48.574;8.768;2023-02-04T01:08:59;96101.19;;;6.50;99.42
10832;BME280;5469;48.574;8.768;2023-02-04T01:11:35;96106.44;;;6.50;100.00
10832;BME280;5469;48.574;8.768;2023-02-04T01:14:10;96106.00;;;6.53;100.00
10832;BME280;5469;48.574;8.768;2023-02-04T01:16:45;96103.97;;;6.55;100.00
10832;BME280;5469;48.574;8.768;2023-02-04T01:19:20;96106.25;;;6.52;100.00
10832;BME280;5469;48.574;8.768;2023-02-04T01:21:56;96102.47;;;6.41;100.00
10832;BME280;5469;48.574;8.768;2023-02-04T01:24:31;96102.81;;;6.51;100.00
10832;BME280;5469;48.574;8.768;2023-02-04T01:27:06;96101.19;;;6.50;100.00
10832;BME280;5469;48.574;8.768;2023-02-04T01:29:42;96095.31;;;6.48;100.00
10832;BME280;5469;48.574;8.768;2023-02-04T01:32:17;96103.66;;;6.45;100.00
10832;BME280;5469;48.574;8.768;2023-02-04T01:34:53;96098.81;;;6.42;100.00
10832;BME280;5469;48.574;8.768;2023-02-04T01:37:29;96099.25;;;6.39;100.00
10832;BME280;5469;48.574;8.768;2023-02-04T01:40:05;96103.66;;;6.45;100.00
10832;BME280;5469;48.574;8.768;2023-02-04T01:42:42;96108.56;;;6.42;100.00
10832;BME280;5469;48.574;8.768;2023-02-04T01:45:18;96103.22;;;6.48;100.00
10832;BME280;5469;48.574;8.768;2023-02-04T01:47:53;96103.81;;;6.50;100.00
10832;BME280;5469;48.574;8.768;2023-02-04T01:50:29;96102.41;;;6.48;100.00
10832;BME280;5469;48.574;8.768;2023-02-04T01:53:05;96095.16;;;6.43;100.00
10832;BME280;5469;48.574;8.768;2023-02-04T01:55:40;96093.13;;;6.45;100.00
10832;BME280;5469;48.574;8.768;2023-02-04T01:58:16;96093.63;;;6.36;100.00
10832;BME280;5469;48.574;8.768;2023-02-04T02:00:52;96105.22;;;6.53;100.00
10832;BME280;5469;48.574;8.768;2023-02-04T02:03:27;96107.66;;;6.54;99.83
10832;BME280;5469;48.574;8.768;2023-02-04T02:06:02;96094.31;;;6.49;100.00
10832;BME280;5469;48.574;8.768;2023-02-04T02:08:39;96102.97;;;6.56;100.00
10832;BME280;5469;48.574;8.768;2023-02-04T02:11:14;96098.72;;;6.55;100.00
10832;BME280;5469;48.574;8.768;2023-02-04T02:13:49;96100.34;;;6.56;100.00
10832;BME280;5469;48.574;8.768;2023-02-04T02:16:25;96095.06;;;6.56;99.62
10832;BME280;5469;48.574;8.768;2023-02-04T02:19:00;96092.81;;;6.60;100.00
10832;BME280;5469;48.574;8.768;2023-02-04T02:21:40;96103.19;;;6.55;100.00
10832;BME280;5469;48.574;8.768;2023-02-04T02:24:29;96095.06;;;6.56;99.76
10832;BME280;5469;48.574;8.768;2023-02-04T02:27:06;96101.50;;;6.61;99.33
10832;BME280;5469;48.574;8.768;2023-02-04T02:29:43;96088.56;;;6.59;100.00
10832;BME280;5469;48.574;8.768;2023-02-04T02:32:18;96092.59;;;6.62;100.00
10832;BME280;5469;48.574;8.768;2023-02-04T02:34:54;96092.81;;;6.60;100.00
10832;BME280;5469;48.574;8.768;2023-02-04T02:37:29;96101.34;;;6.55;100.00
10832;BME280;5469;48.574;8.768;2023-02-04T02:40:07;96097.47;;;6.58;100.00
10832;BME280;5469;48.574;8.768;2023-02-04T02:42:43;96108.00;;;6.58;100.00
10832;BME280;5469;48.574;8.768;2023-02-04T02:45:24;96103.97;;;6.55;100.00
10832;BME280;5469;48.574;8.768;2023-02-04T02:48:03;96101.94;;;6.57;100.00
10832;BME280;5469;48.574;8.768;2023-02-04T02:50:38;96110.88;;;6.56;100.00
10832;BME280;5469;48.574;8.768;2023-02-04T02:53:18;96109.84;;;6.57;100.00
10832;BME280;5469;48.574;8.768;2023-02-04T02:55:55;96116.03;;;6.70;99.96
10832;BME280;5469;48.574;8.768;2023-02-04T02:58:32;96114.84;;;6.66;100.00
10832;BME280;5469;48.574;8.768;2023-02-04T03:01:09;96129.47;;;6.62;99.89
10832;BME280;5469;48.574;8.768;2023-02-04T03:03:48;96130.22;;;6.69;98.56
10832;BME280;5469;48.574;8.768;2023-02-04T03:06:27;96139.16;;;6.68;99.24
10832;BME280;5469;48.574;8.768;2023-02-04T03:09:03;96141.06;;;6.79;99.48
10832;BME280;5469;48.574;8.768;2023-02-04T03:11:40;96140.28;;;6.78;99.33
10832;BME280;5469;48.574;8.768;2023-02-04T03:14:15;96135.81;;;6.79;99.30
10832;BME280;5469;48.574;8.768;2023-02-04T03:16:51;96130.66;;;6.66;99.42
10832;BME280;5469;48.574;8.768;2023-02-04T03:19:27;96142.81;;;6.67;100.00
10832;BME280;5469;48.574;8.768;2023-02-04T03:22:03;96136.34;;;6.63;100.00
10832;BME280;5469;48.574;8.768;2023-02-04T03:24:40;96139.47;;;6.78;98.74
10832;BME280;5469;48.574;8.768;2023-02-04T03:27:17;96147.97;;;6.80;98.90
10832;BME280;5469;48.574;8.768;2023-02-04T03:29:52;96140.63;;;6.82;98.08
10832;BME280;5469;48.574;8.768;2023-02-04T03:32:27;96157.31;;;6.76;97.26
10832;BME280;5469;48.574;8.768;2023-02-04T03:35:02;96148.28;;;6.90;95.96
10832;BME280;5469;48.574;8.768;2023-02-04T03:37:37;96157.63;;;6.86;95.37
10832;BME280;5469;48.574;8.768;2023-02-04T03:40:13;96147.84;;;6.93;94.44
10832;BME280;5469;48.574;8.768;2023-02-04T03:42:50;96157.97;;;6.96;94.34
10832;BME280;5469;48.574;8.768;2023-02-04T03:45:25;96162.16;;;6.79;97.94
10832;BME280;5469;48.574;8.768;2023-02-04T03:48:00;96172.25;;;6.82;96.30
10832;BME280;5469;48.574;8.768;2023-02-04T03:50:35;96169.69;;;7.00;95.87
10832;BME280;5469;48.574;8.768;2023-02-04T03:53:11;96182.91;;;7.19;93.70
10832;BME280;5469;48.574;8.768;2023-02-04T03:55:46;96186.13;;;7.21;95.06
10832;BME280;5469;48.574;8.768;2023-02-04T03:58:23;96189.19;;;7.18;95.30
10832;BME280;5469;48.574;8.768;2023-02-04T04:00:58;96191.81;;;7.18;95.28
10832;BME280;5469;48.574;8.768;2023-02-04T04:03:33;96193.59;;;7.06;96.73
10832;BME280;5469;48.574;8.768;2023-02-04T04:06:08;96196.06;;;7.00;98.79
10832;BME280;5469;48.574;8.768;2023-02-04T04:08:43;96201.31;;;7.00;97.97
10832;BME280;5469;48.574;8.768;2023-02-04T04:11:18;96214.34;;;6.95;97.56
10832;BME280;5469;48.574;8.768;2023-02-04T04:13:55;96211.13;;;6.93;98.62
10832;BME280;5469;48.574;8.768;2023-02-04T04:16:30;96220.47;;;6.89;98.68
10832;BME280;5469;48.574;8.768;2023-02-04T04:19:06;96218.88;;;6.82;98.63
10832;BME280;5469;48.574;8.768;2023-02-04T04:21:41;96214.94;;;6.66;99.83
10832;BME280;5469;48.574;8.768;2023-02-04T04:24:16;96217.31;;;6.74;98.57
10832;BME280;5469;48.574;8.768;2023-02-04T04:26:51;96218.09;;;6.81;98.34
10832;BME280;5469;48.574;8.768;2023-02-04T04:29:27;96212.38;;;6.84;97.80
10832;BME280;5469;48.574;8.768;2023-02-04T04:32:02;96224.66;;;6.72;98.88
10832;BME280;5469;48.574;8.768;2023-02-04T04:34:37;96223.47;;;6.68;99.24
10832;BME280;5469;48.574;8.768;2023-02-04T04:37:13;96223.03;;;6.71;99.00
10832;BME280;5469;48.574;8.768;2023-02-04T04:39:48;96234.34;;;6.78;97.90
10832;BME280;5469;48.574;8.768;2023-02-04T04:42:22;96228.91;;;6.73;98.38
10832;BME280;5469;48.574;8.768;2023-02-04T04:44:59;96218.09;;;6.81;97.30
10832;BME280;5469;48.574;8.768;2023-02-04T04:47:34;96234.69;;;6.82;96.75
10832;BME280;5469;48.574;8.768;2023-02-04T04:50:10;96235.09;;;6.85;96.89
10832;BME280;5469;48.574;8.768;2023-02-04T04:52:46;96222.84;;;6.66;97.83
10832;BME280;5469;48.574;8.768;2023-02-04T04:55:21;96233.53;;;6.77;97.72
10832;BME280;5469;48.574;8.768;2023-02-04T04:57:56;96241.63;;;6.76;97.10
10832;BME280;5469;48.574;8.768;2023-02-04T05:00:33;96242.94;;;6.67;97.45
10832;BME280;5469;48.574;8.768;2023-02-04T05:03:08;96244.53;;;6.68;97.78
10832;BME280;5469;48.574;8.768;2023-02-04T05:05:43;96242.59;;;6.56;98.65
10832;BME280;5469;48.574;8.768;2023-02-04T05:08:18;96238.06;;;6.64;98.03
10832;BME280;5469;48.574;8.768;2023-02-04T05:10:51;96237.22;;;6.70;97.61
10832;BME280;5469;48.574;8.768;2023-02-04T05:13:27;96239.78;;;6.51;97.60
10832;BME280;5469;48.574;8.768;2023-02-04T05:16:05;96235.69;;;6.55;97.22
10832;BME280;5469;48.574;8.768;2023-02-04T05:18:41;96238.56;;;6.47;99.49
10832;BME280;5469;48.574;8.768;2023-02-04T05:21:16;96245.03;;;6.51;99.05
10832;BME280;5469;48.574;8.768;2023-02-04T05:23:51;96253.13;;;6.56;97.96
10832;BME280;5469;48.574;8.768;2023-02-04T05:26:26;96260.88;;;6.38;98.79
10832;BME280;5469;48.574;8.768;2023-02-04T05:29:01;96261.66;;;6.45;98.29
10832;BME280;5469;48.574;8.768;2023-02-04T05:31:37;96261.28;;;6.42;98.10
10832;BME280;5469;48.574;8.768;2023-02-04T05:34:12;96259.28;;;6.37;97.70
10832;BME280;5469;48.574;8.768;2023-02-04T05:36:47;96254.09;;;6.24;98.15
10832;BME280;5469;48.574;8.768;2023-02-04T05:39:22;96253.59;;;6.40;97.17
10832;BME280;5469;48.574;8.768;2023-02-04T05:41:57;96255.63;;;6.38;95.86
10832;BME280;5469;48.574;8.768;2023-02-04T05:44:32;96256.84;;;6.42;95.69
10832;BME280;5469;48.574;8.768;2023-02-04T05:47:08;96260.84;;;6.51;94.51
10832;BME280;5469;48.574;8.768;2023-02-04T05:49:43;96274.41;;;6.48;94.29
10832;BME280;5469;48.574;8.768;2023-02-04T05:52:18;96284.78;;;6.43;93.13
10832;BME280;5469;48.574;8.768;2023-02-04T05:54:53;96297.38;;;6.41;93.61
10832;BME280;5469;48.574;8.768;2023-02-04T05:57:28;96296.22;;;6.24;94.07
10832;BME280;5469;48.574;8.768;2023-02-04T06:00:03;96296.59;;;6.34;93.80
10832;BME280;5469;48.574;8.768;2023-02-04T06:02:41;96297.59;;;6.33;93.20
10832;BME280;5469;48.574;8.768;2023-02-04T06:05:17;96287.06;;;6.33;93.52
10832;BME280;5469;48.574;8.768;2023-02-04T06:07:52;96290.50;;;6.33;93.27
10832;BME280;5469;48.574;8.768;2023-02-04T06:10:27;96289.53;;;6.28;93.10
10832;BME280;5469;48.574;8.768;2023-02-04T06:13:02;96274.78;;;6.20;93.82
10832;BME280;5469;48.574;8.768;2023-02-04T06:15:37;96285.31;;;6.13;93.09
10832;BME280;5469;48.574;8.768;2023-02-04T06:18:14;96280.66;;;6.16;93.05
10832;BME280;5469;48.574;8.768;2023-02-04T06:20:49;96292.19;;;6.15;93.58
10832;BME280;5469;48.574;8.768;2023-02-04T06:23:26;96292.97;;;6.22;93.20
10832;BME280;5469;48.574;8.768;2023-02-04T06:26:01;96291.38;;;6.21;93.60
10832;BME280;5469;48.574;8.768;2023-02-04T06:28:37;96293.81;;;6.09;93.64
10832;BME280;5469;48.574;8.768;2023-02-04T06:31:11;96294.00;;;6.14;93.74
10832;BME280;5469;48.574;8.768;2023-02-04T06:33:48;96299.09;;;6.09;92.52
10832;BME280;5469;48.574;8.768;2023-02-04T06:36:23;96302.34;;;6.11;92.93
10832;BME280;5469;48.574;8.768;2023-02-04T06:38:58;96308.38;;;6.18;92.77
10832;BME280;5469;48.574;8.768;2023-02-04T06:41:33;96326.63;;;6.06;92.74
10832;BME280;5469;48.574;8.768;2023-02-04T06:44:08;96334.31;;;6.15;92.39
10832;BME280;5469;48.574;8.768;2023-02-04T06:46:43;96344.03;;;6.21;92.06
10832;BME280;5469;48.574;8.768;2023-02-04T06:49:19;96329.47;;;6.11;91.82
10832;BME280;5469;48.574;8.768;2023-02-04T06:51:54;96343.59;;;6.24;91.32
10832;BME280;5469;48.574;8.768;2023-02-04T06:54:29;96347.06;;;6.18;91.17
10832;BME280;5469;48.574;8.768;2023-02-04T06:57:04;96352.13;;;6.26;91.62
10832;BME280;5469;48.574;8.768;2023-02-04T06:59:40;96349.25;;;6.34;90.76
10832;BME280;5469;48.574;8.768;2023-02-04T07:02:16;96353.72;;;6.33;90.57
10832;BME280;5469;48.574;8.768;2023-02-04T07:04:52;96354.38;;;6.16;91.16
10832;BME280;5469;48.574;8.768;2023-02-04T07:07:27;96352.91;;;6.20;91.42
10832;BME280;5469;48.574;8.768;2023-02-04T07:10:06;96352.16;;;6.12;91.69
10832;BME280;5469;48.574;8.768;2023-02-04T07:12:41;96355.78;;;6.11;91.28
10832;BME280;5469;48.574;8.768;2023-02-04T07:15:16;96361.88;;;6.05;90.49
10832;BME280;5469;48.574;8.768;2023-02-04T07:17:51;96362.50;;;6.01;90.20
10832;BME280;5469;48.574;8.768;2023-02-04T07:20:28;96362.28;;;6.09;90.72
10832;BME280;5469;48.574;8.768;2023-02-04T07:23:03;96365.50;;;6.04;90.41
10832;BME280;5469;48.574;8.768;2023-02-04T07:25:38;96357.41;;;6.06;90.78
10832;BME280;5469;48.574;8.768;2023-02-04T07:28:13;96366.34;;;5.91;90.29
10832;BME280;5469;48.574;8.768;2023-02-04T07:30:49;96366.94;;;6.00;90.51
10832;BME280;5469;48.574;8.768;2023-02-04T07:33:24;96366.16;;;6.00;89.97
10832;BME280;5469;48.574;8.768;2023-02-04T07:36:01;96377.66;;;6.05;90.12
10832;BME280;5469;48.574;8.768;2023-02-04T07:38:36;96378.47;;;5.99;89.81
10832;BME280;5469;48.574;8.768;2023-02-04T07:41:11;96381.91;;;6.06;89.69
10832;BME280;5469;48.574;8.768;2023-02-04T07:43:46;96373.22;;;6.12;90.05
10832;BME280;5469;48.574;8.768;2023-02-04T07:46:21;96380.53;;;5.97;89.80
10832;BME280;5469;48.574;8.768;2023-02-04T07:48:56;96392.25;;;6.01;90.45
10832;BME280;5469;48.574;8.768;2023-02-04T07:51:32;96395.88;;;6.13;89.77
10832;BME280;5469;48.574;8.768;2023-02-04T07:54:07;96402.38;;;6.11;89.75
10832;BME280;5469;48.574;8.768;2023-02-04T07:56:42;96410.47;;;6.16;89.37
10832;BME280;5469;48.574;8.768;2023-02-04T07:59:17;96407.00;;;6.29;88.73
10832;BME280;5469;48.574;8.768;2023-02-04T08:01:52;96394.25;;;6.26;88.83
10832;BME280;5469;48.574;8.768;2023-02-04T08:04:27;96395.84;;;6.27;89.14
10832;BME280;5469;48.574;8.768;2023-02-04T08:07:03;96392.41;;;6.33;88.55
10832;BME280;5469;48.574;8.768;2023-02-04T08:09:38;96397.25;;;6.36;88.28
10832;BME280;5469;48.574;8.768;2023-02-04T08:12:13;96404.34;;;6.29;88.29
10832;BME280;5469;48.574;8.768;2023-02-04T08:14:48;96401.50;;;6.37;87.80
10832;BME280;5469;48.574;8.768;2023-02-04T08:17:23;96396.66;;;6.34;88.28
10832;BME280;5469;48.574;8.768;2023-02-04T08:19:58;96404.34;;;6.36;88.54
10832;BME280;5469;48.574;8.768;2023-02-04T08:22:35;96402.31;;;6.38;88.58
10832;BME280;5469;48.574;8.768;2023-02-04T08:25:10;96396.66;;;6.34;88.67
10832;BME280;5469;48.574;8.768;2023-02-04T08:27:45;96407.19;;;6.34;88.16
10832;BME280;5469;48.574;8.768;2023-02-04T08:30:20;96411.31;;;5.97;89.94
10832;BME280;5469;48.574;8.768;2023-02-04T08:32:56;96420.78;;;6.11;90.08
10832;BME280;5469;48.574;8.768;2023-02-04T08:35:31;96434.75;;;6.31;89.04
10832;BME280;5469;48.574;8.768;2023-02-04T08:38:08;96436.38;;;6.26;88.15
10832;BME280;5469;48.574;8.768;2023-02-04T08:40:44;96440.81;;;6.39;88.36
10832;BME280;5469;48.574;8.768;2023-02-04T08:43:19;96445.47;;;6.17;88.78
10832;BME280;5469;48.574;8.768;2023-02-04T08:45:55;96444.47;;;6.04;88.87
10832;BME280;5469;48.574;8.768;2023-02-04T08:48:30;96442.66;;;6.11;88.69
10832;BME280;5469;48.574;8.768;2023-02-04T08:51:05;96445.28;;;6.11;89.01
10832;BME280;5469;48.574;8.768;2023-02-04T08:53:42;96448.94;;;6.24;88.18
10832;BME280;5469;48.574;8.768;2023-02-04T08:56:16;96456.63;;;6.19;88.73
10832;BME280;5469;48.574;8.768;2023-02-04T08:58:53;96448.97;;;5.97;89.13
10832;BME280;5469;48.574;8.768;2023-02-04T09:01:27;96451.38;;;6.19;88.61
10832;BME280;5469;48.574;8.768;2023-02-04T09:04:03;96464.31;;;6.27;88.10
10832;BME280;5469;48.574;8.768;2023-02-04T09:06:39;96469.16;;;6.30;87.59
10832;BME280;5469;48.574;8.768;2023-02-04T09:09:15;96469.16;;;6.30;87.73
10832;BME280;5469;48.574;8.768;2023-02-04T09:11:50;96474.03;;;6.26;87.51
10832;BME280;5469;48.574;8.768;2023-02-04T09:14:25;96476.44;;;6.54;87.55
10832;BME280;5469;48.574;8.768;2023-02-04T09:17:00;96478.84;;;6.63;87.90
10832;BME280;5469;48.574;8.768;2023-02-04T09:19:35;96482.13;;;6.51;88.30
10832;BME280;5469;48.574;8.768;2023-02-04T09:22:10;96476.78;;;6.78;87.47
10832;BME280;5469;48.574;8.768;2023-02-04T09:24:47;96485.66;;;6.90;87.27
10832;BME280;5469;48.574;8.768;2023-02-04T09:27:22;96482.00;;;6.91;87.07
10832;BME280;5469;48.574;8.768;2023-02-04T09:29:58;96482.66;;;6.80;86.97
10832;BME280;5469;48.574;8.768;2023-02-04T09:32:33;96477.16;;;6.88;85.78
10832;BME280;5469;48.574;8.768;2023-02-04T09:35:09;96479.50;;;7.10;87.66
10832;BME280;5469;48.574;8.768;2023-02-04T09:37:44;96484.47;;;7.31;85.95
10832;BME280;5469;48.574;8.768;2023-02-04T09:40:21;96488.38;;;7.22;84.56
10832;BME280;5469;48.574;8.768;2023-02-04T09:42:57;96487.88;;;7.38;85.80
10832;BME280;5469;48.574;8.768;2023-02-04T09:45:35;96499.13;;;7.20;83.98
10832;BME280;5469;48.574;8.768;2023-02-04T09:48:13;96497.66;;;7.31;83.94
10832;BME280;5469;48.574;8.768;2023-02-04T09:50:48;96500.88;;;7.33;82.33
10832;BME280;5469;48.574;8.768;2023-02-04T09:53:26;96507.91;;;7.53;84.58
10832;BME280;5469;48.574;8.768;2023-02-04T09:56:03;96509.69;;;7.59;83.67
10832;BME280;5469;48.574;8.768;2023-02-04T09:58:38;96512.66;;;8.01;82.96
10832;BME280;5469;48.574;8.768;2023-02-04T10:01:16;96512.56;;;8.46;81.76
10832;BME280;5469;48.574;8.768;2023-02-04T10:03:51;96499.78;;;8.61;81.96
10832;BME280;5469;48.574;8.768;2023-02-04T10:06:29;96505.25;;;9.22;79.82
10832;BME280;5469;48.574;8.768;2023-02-04T10:09:05;96510.13;;;8.88;78.79
10832;BME280;5469;48.574;8.768;2023-02-04T10:11:43;96507.47;;;8.88;76.26
10832;BME280;5469;48.574;8.768;2023-02-04T10:14:21;96502.03;;;9.01;76.26
10832;BME280;5469;48.574;8.768;2023-02-04T10:17:00;96505.84;;;8.87;77.38
10832;BME280;5469;48.574;8.768;2023-02-04T10:19:35;96503.63;;;9.02;76.65
10832;BME280;5469;48.574;8.768;2023-02-04T10:22:15;96505.47;;;8.83;75.74
10832;BME280;5469;48.574;8.768;2023-02-04T10:24:50;96499.38;;;8.83;76.55
10832;BME280;5469;48.574;8.768;2023-02-04T10:27:26;96499.22;;;8.59;75.32
10832;BME280;5469;48.574;8.768;2023-02-04T10:30:01;96502.91;;;8.95;75.92
10832;BME280;5469;48.574;8.768;2023-02-04T10:32:36;96500.59;;;9.35;70.71
10832;BME280;5469;48.574;8.768;2023-02-04T10:35:14;96492.56;;;10.26;74.54
10832;BME280;5469;48.574;8.768;2023-02-04T10:38:01;96490.44;;;9.93;69.14
10832;BME280;5469;48.574;8.768;2023-02-04T10:40:38;96494.16;;;9.61;70.95
10832;BME280;5469;48.574;8.768;2023-02-04T10:43:20;96491.06;;;8.61;68.07
10832;BME280;5469;48.574;8.768;2023-02-04T10:45:57;96485.66;;;9.11;68.30
10832;BME280;5469;48.574;8.768;2023-02-04T10:48:40;96487.81;;;9.32;70.36
10832;BME280;5469;48.574;8.768;2023-02-04T10:51:15;96483.50;;;10.57;69.15
10832;BME280;5469;48.574;8.768;2023-02-04T10:53:51;96477.44;;;13.01;69.25
10832;BME280;5469;48.574;8.768;2023-02-04T10:56:43;96481.09;;;12.95;67.25
10832;BME280;5469;48.574;8.768;2023-02-04T10:59:23;96485.53;;;12.00;64.29
10832;BME280;5469;48.574;8.768;2023-02-04T11:02:10;96488.75;;;11.45;64.11
10832;BME280;5469;48.574;8.768;2023-02-04T11:04:55;96493.09;;;10.46;66.48
10832;BME280;5469;48.574;8.768;2023-02-04T11:07:31;96502.28;;;9.48;64.55
10832;BME280;5469;48.574;8.768;2023-02-04T11:10:09;96510.03;;;10.03;65.01
10832;BME280;5469;48.574;8.768;2023-02-04T11:12:58;96503.88;;;9.49;64.08
10832;BME280;5469;48.574;8.768;2023-02-04T11:15:53;96498.44;;;9.62;65.74
10832;BME280;5469;48.574;8.768;2023-02-04T11:18:30;96495.78;;;10.04;68.15
10832;BME280;5469;48.574;8.768;2023-02-04T11:21:20;96504.88;;;9.67;64.85
10832;BME280;5469;48.574;8.768;2023-02-04T11:24:19;96494.19;;;10.15;65.40
10832;BME280;5469;48.574;8.768;2023-02-04T11:27:05;96502.88;;;9.92;64.02
10832;BME280;5469;48.574;8.768;2023-02-04T11:29:40;96508.63;;;9.89;66.08
10832;BME280;5469;48.574;8.768;2023-02-04T11:32:30;96508.44;;;10.02;67.95
10832;BME280;5469;48.574;8.768;2023-02-04T11:35:21;96508.44;;;10.02;67.95
10832;BME280;5469;48.574;8.768;2023-02-04T11:37:57;96508.44;;;10.02;67.95
10832;BME280;5469;48.574;8.768;2023-02-04T11:40:34;96484.94;;;16.39;54.30
10832;BME280;5469;48.574;8.768;2023-02-04T11:43:13;96494.16;;;14.87;55.59
10832;BME280;5469;48.574;8.768;2023-02-04T11:45:58;96499.78;;;15.58;55.75
10832;BME280;5469;48.574;8.768;2023-02-04T11:48:36;96503.66;;;14.72;55.25
10832;BME280;5469;48.574;8.768;2023-02-04T11:51:13;96502.31;;;13.29;54.43
10832;BME280;5469;48.574;8.768;2023-02-04T11:53:52;96497.09;;;13.39;56.94
10832;BME280;5469;48.574;8.768;2023-02-04T11:56:29;96495.09;;;13.51;53.86
10832;BME280;5469;48.574;8.768;2023-02-04T11:59:04;96492.59;;;13.67;58.09
10832;BME280;5469;48.574;8.768;2023-02-04T12:01:40;96494.66;;;13.16;55.75
10832;BME280;5469;48.574;8.768;2023-02-04T12:04:24;96510.81;;;12.02;55.59
10832;BME280;5469;48.574;8.768;2023-02-04T12:07:01;96502.78;;;12.14;56.74
10832;BME280;5469;48.574;8.768;2023-02-04T12:09:48;96497.84;;;12.40;55.84
10832;BME280;5469;48.574;8.768;2023-02-04T12:12:22;96501.94;;;12.64;55.29
10832;BME280;5469;48.574;8.768;2023-02-04T12:15:08;96499.72;;;15.43;58.54
10832;BME280;5469;48.574;8.768;2023-02-04T12:17:48;96494.03;;;16.58;47.28
10832;BME280;5469;48.574;8.768;2023-02-04T12:20:35;96494.03;;;16.12;53.03
10832;BME280;5469;48.574;8.768;2023-02-04T12:23:12;96494.00;;;17.05;46.27
10832;BME280;5469;48.574;8.768;2023-02-04T12:25:47;96507.41;;;14.71;51.38
10832;BME280;5469;48.574;8.768;2023-02-04T12:28:23;96500.94;;;13.48;51.09
10832;BME280;5469;48.574;8.768;2023-02-04T12:30:58;96508.22;;;12.92;56.06
10832;BME280;5469;48.574;8.768;2023-02-04T12:33:33;96511.47;;;12.60;53.94
10832;BME280;5469;48.574;8.768;2023-02-04T12:36:10;96496.34;;;12.61;55.69
10832;BME280;5469;48.574;8.768;2023-02-04T12:38:45;96502.78;;;12.48;58.24
10832;BME280;5469;48.574;8.768;2023-02-04T12:41:21;96505.66;;;11.96;52.90
10832;BME280;5469;48.574;8.768;2023-02-04T12:43:55;96496.88;;;11.95;51.62
10832;BME280;5469;48.574;8.768;2023-02-04T12:46:30;96510.59;;;12.38;55.60
10832;BME280;5469;48.574;8.768;2023-02-04T12:49:06;96505.75;;;13.07;54.15
10832;BME280;5469;48.574;8.768;2023-02-04T12:51:43;96507.91;;;12.72;54.51
10832;BME280;5469;48.574;8.768;2023-02-04T12:54:18;96505.78;;;12.74;53.43
10832;BME280;5469;48.574;8.768;2023-02-04T12:56:53;96508.59;;;13.67;53.09
10832;BME280;5469;48.574;8.768;2023-02-04T12:59:30;96512.09;;;13.45;54.80
10832;BME280;5469;48.574;8.768;2023-02-04T13:02:05;96511.75;;;12.98;54.21
10832;BME280;5469;48.574;8.768;2023-02-04T13:04:40;96513.34;;;12.43;56.03
10832;BME280;5469;48.574;8.768;2023-02-04T13:07:17;96515.03;;;12.32;59.28
10832;BME280;5469;48.574;8.768;2023-02-04T13:09:52;96521.06;;;12.61;56.48
10832;BME280;5469;48.574;8.768;2023-02-04T13:12:27;96520.81;;;12.12;56.02
10832;BME280;5469;48.574;8.768;2023-02-04T13:15:03;96519.59;;;12.03;58.07
10832;BME280;5469;48.574;8.768;2023-02-04T13:17:39;96516.66;;;11.88;56.44
10832;BME280;5469;48.574;8.768;2023-02-04T13:20:14;96512.16;;;11.59;58.50
10832;BME280;5469;48.574;8.768;2023-02-04T13:22:50;96517.72;;;11.87;57.04
10832;BME280;5469;48.574;8.768;2023-02-04T13:25:25;96520.53;;;11.68;56.39
10832;BME280;5469;48.574;8.768;2023-02-04T13:28:01;96519.47;;;11.69;57.71
10832;BME280;5469;48.574;8.768;2023-02-04T13:30:36;96511.38;;;12.05;58.58
10832;BME280;5469;48.574;8.768;2023-02-04T13:33:13;96518.34;;;12.22;56.10
10832;BME280;5469;48.574;8.768;2023-02-04T13:35:49;96508.38;;;13.46;55.98
10832;BME280;5469;48.574;8.768;2023-02-04T13:38:25;96507.28;;;14.98;52.38
10832;BME280;5469;48.574;8.768;2023-02-04T13:41:00;96507.41;;;16.07;50.06
10832;BME280;5469;48.574;8.768;2023-02-04T13:43:35;96498.81;;;15.85;49.26
10832;BME280;5469;48.574;8.768;2023-02-04T13:46:11;96526.91;;;14.77;50.64
10832;BME280;5469;48.574;8.768;2023-02-04T13:48:47;96518.25;;;14.97;47.99
10832;BME280;5469;48.574;8.768;2023-02-04T13:51:23;96527.59;;;14.62;49.78
10832;BME280;5469;48.574;8.768;2023-02-04T13:54:01;96526.69;;;14.83;49.37
10832;BME280;5469;48.574;8.768;2023-02-04T13:56:36;96525.25;;;14.38;51.11
10832;BME280;5469;48.574;8.768;2023-02-04T13:59:13;96526.72;;;14.24;50.46
10832;BME280;5469;48.574;8.768;2023-02-04T14:01:48;96523.47;;;15.29;47.87
10832;BME280;5469;48.574;8.768;2023-02-04T14:04:22;96527.63;;;15.67;48.00
10832;BME280;5469;48.574;8.768;2023-02-04T14:06:59;96525.50;;;15.75;46.22